North Hatfield, Massachusetts
Current Conditions -  °F | °C
As of 11:21 AM on Friday 24 Oct 2014 (Local Time) from KCEF Reporting Station
Overcast Overcast  
Wind Chill: 52°   Ceiling: 2100
Heat Index: 52°   Visibility: 10mi
Dew Point: 45°   Wind: 9mph
Humidity: 76%   Direction: 360°N
Pressure: 29.76"   Gusts: NA
Location:  42.41°N, 72.62°W
Report Text: KCEF 241521Z 36008KT 320V020 10SM BKN021 OVC025 11/07 A2976 RMK AO2A
Loading
Personal Weather Stations






























Interactive Weather Map
Tropical Storm Tracking
New forecast layout! Learn more

10-Day Weather Forecast

Advertisements
Track Severe Weather on mobile